sensor_id;sensor_type;location;lat;lon;timestamp;temperature;humidity
31735;DHT22;18313;48.518;9.124;2024-02-28T00:00:18;7.20;99.90
31735;DHT22;18313;48.518;9.124;2024-02-28T00:02:45;7.10;99.90
31735;DHT22;18313;48.518;9.124;2024-02-28T00:05:12;7.00;99.90
31735;DHT22;18313;48.518;9.124;2024-02-28T00:07:40;7.00;99.90
31735;DHT22;18313;48.518;9.124;2024-02-28T00:10:07;6.90;99.90
31735;DHT22;18313;48.518;9.124;2024-02-28T00:12:35;7.00;99.90
31735;DHT22;18313;48.518;9.124;2024-02-28T00:15:02;6.90;99.90
31735;DHT22;18313;48.518;9.124;2024-02-28T00:17:30;6.90;99.90
31735;DHT22;18313;48.518;9.124;2024-02-28T00:19:57;6.90;99.90
31735;DHT22;18313;48.518;9.124;2024-02-28T00:22:24;6.80;99.90
31735;DHT22;18313;48.518;9.124;2024-02-28T00:24:52;6.70;99.90
31735;DHT22;18313;48.518;9.124;2024-02-28T00:27:19;6.60;99.90
31735;DHT22;18313;48.518;9.124;2024-02-28T00:29:46;6.50;99.90
31735;DHT22;18313;48.518;9.124;2024-02-28T00:32:13;6.50;99.90
31735;DHT22;18313;48.518;9.124;2024-02-28T00:34:41;6.40;99.90
31735;DHT22;18313;48.518;9.124;2024-02-28T00:37:08;6.40;99.90
31735;DHT22;18313;48.518;9.124;2024-02-28T00:39:35;6.20;99.90
31735;DHT22;18313;48.518;9.124;2024-02-28T00:42:02;6.20;99.90
31735;DHT22;18313;48.518;9.124;2024-02-28T00:44:30;6.10;99.90
31735;DHT22;18313;48.518;9.124;2024-02-28T00:46:57;6.00;99.90
31735;DHT22;18313;48.518;9.124;2024-02-28T00:49:24;6.00;99.90
31735;DHT22;18313;48.518;9.124;2024-02-28T00:51:51;5.90;99.90
31735;DHT22;18313;48.518;9.124;2024-02-28T00:54:19;5.80;99.90
31735;DHT22;18313;48.518;9.124;2024-02-28T00:56:48;5.70;99.90
31735;DHT22;18313;48.518;9.124;2024-02-28T00:59:15;5.70;99.90
31735;DHT22;18313;48.518;9.124;2024-02-28T01:01:42;5.80;99.90
31735;DHT22;18313;48.518;9.124;2024-02-28T01:04:10;5.80;99.90
31735;DHT22;18313;48.518;9.124;2024-02-28T01:06:39;5.90;99.90
31735;DHT22;18313;48.518;9.124;2024-02-28T01:09:06;5.80;99.90
31735;DHT22;18313;48.518;9.124;2024-02-28T01:11:33;5.80;99.90
31735;DHT22;18313;48.518;9.124;2024-02-28T01:14:00;5.80;99.90
31735;DHT22;18313;48.518;9.124;2024-02-28T01:16:28;5.80;99.90
31735;DHT22;18313;48.518;9.124;2024-02-28T01:18:56;5.80;99.90
31735;DHT22;18313;48.518;9.124;2024-02-28T01:21:23;6.00;99.90
31735;DHT22;18313;48.518;9.124;2024-02-28T01:23:51;6.00;99.90
31735;DHT22;18313;48.518;9.124;2024-02-28T01:26:18;6.00;99.90
31735;DHT22;18313;48.518;9.124;2024-02-28T01:28:49;6.20;99.90
31735;DHT22;18313;48.518;9.124;2024-02-28T01:31:16;6.30;99.90
31735;DHT22;18313;48.518;9.124;2024-02-28T01:33:43;6.30;99.90
31735;DHT22;18313;48.518;9.124;2024-02-28T01:36:11;6.40;99.90
31735;DHT22;18313;48.518;9.124;2024-02-28T01:38:38;6.40;99.90
31735;DHT22;18313;48.518;9.124;2024-02-28T01:41:06;6.40;99.90
31735;DHT22;18313;48.518;9.124;2024-02-28T01:43:33;6.50;99.90
31735;DHT22;18313;48.518;9.124;2024-02-28T01:46:03;6.40;99.90
31735;DHT22;18313;48.518;9.124;2024-02-28T01:48:31;6.40;99.90
31735;DHT22;18313;48.518;9.124;2024-02-28T01:50:58;6.40;99.90
31735;DHT22;18313;48.518;9.124;2024-02-28T01:53:26;6.40;99.90
31735;DHT22;18313;48.518;9.124;2024-02-28T01:55:53;6.40;99.90
31735;DHT22;18313;48.518;9.124;2024-02-28T01:58:21;6.50;99.90
31735;DHT22;18313;48.518;9.124;2024-02-28T02:00:48;6.50;99.90
31735;DHT22;18313;48.518;9.124;2024-02-28T02:03:16;6.40;99.90
31735;DHT22;18313;48.518;9.124;2024-02-28T02:05:44;6.50;99.90
31735;DHT22;18313;48.518;9.124;2024-02-28T02:08:11;6.50;99.90
31735;DHT22;18313;48.518;9.124;2024-02-28T02:10:38;6.50;99.90
31735;DHT22;18313;48.518;9.124;2024-02-28T02:13:06;6.50;99.90
31735;DHT22;18313;48.518;9.124;2024-02-28T02:15:33;6.50;99.90
31735;DHT22;18313;48.518;9.124;2024-02-28T02:18:01;6.50;99.90
31735;DHT22;18313;48.518;9.124;2024-02-28T02:20:31;6.40;99.90
31735;DHT22;18313;48.518;9.124;2024-02-28T02:22:59;6.40;99.90
31735;DHT22;18313;48.518;9.124;2024-02-28T02:25:27;6.40;99.90
31735;DHT22;18313;48.518;9.124;2024-02-28T02:27:54;6.50;99.90
31735;DHT22;18313;48.518;9.124;2024-02-28T02:30:21;6.50;99.90
31735;DHT22;18313;48.518;9.124;2024-02-28T02:32:49;6.50;99.90
31735;DHT22;18313;48.518;9.124;2024-02-28T02:35:16;6.50;99.90
31735;DHT22;18313;48.518;9.124;2024-02-28T02:37:44;6.70;99.90
31735;DHT22;18313;48.518;9.124;2024-02-28T02:40:15;6.70;99.90
31735;DHT22;18313;48.518;9.124;2024-02-28T02:42:42;6.60;99.90
31735;DHT22;18313;48.518;9.124;2024-02-28T02:45:09;6.60;99.90
31735;DHT22;18313;48.518;9.124;2024-02-28T02:47:37;6.60;99.90
31735;DHT22;18313;48.518;9.124;2024-02-28T02:50:05;6.60;99.90
31735;DHT22;18313;48.518;9.124;2024-02-28T02:52:32;6.60;99.90
31735;DHT22;18313;48.518;9.124;2024-02-28T02:55:00;6.60;99.90
31735;DHT22;18313;48.518;9.124;2024-02-28T02:57:27;6.60;99.90
31735;DHT22;18313;48.518;9.124;2024-02-28T02:59:54;6.60;99.90
31735;DHT22;18313;48.518;9.124;2024-02-28T03:02:22;6.60;99.90
31735;DHT22;18313;48.518;9.124;2024-02-28T03:04:49;6.60;99.90
31735;DHT22;18313;48.518;9.124;2024-02-28T03:07:16;6.70;99.90
31735;DHT22;18313;48.518;9.124;2024-02-28T03:09:43;6.70;99.90
31735;DHT22;18313;48.518;9.124;2024-02-28T03:12:11;6.60;99.90
31735;DHT22;18313;48.518;9.124;2024-02-28T03:14:38;6.60;99.90
31735;DHT22;18313;48.518;9.124;2024-02-28T03:17:05;6.60;99.90
31735;DHT22;18313;48.518;9.124;2024-02-28T03:19:33;6.60;99.90
31735;DHT22;18313;48.518;9.124;2024-02-28T03:22:02;6.60;99.90
31735;DHT22;18313;48.518;9.124;2024-02-28T03:24:31;6.60;99.90
31735;DHT22;18313;48.518;9.124;2024-02-28T03:27:02;6.60;99.90
31735;DHT22;18313;48.518;9.124;2024-02-28T03:29:29;6.60;99.90
31735;DHT22;18313;48.518;9.124;2024-02-28T03:31:58;6.60;99.90
31735;DHT22;18313;48.518;9.124;2024-02-28T03:34:25;6.70;99.90
31735;DHT22;18313;48.518;9.124;2024-02-28T03:36:53;6.80;99.90
31735;DHT22;18313;48.518;9.124;2024-02-28T03:39:20;7.00;99.90
31735;DHT22;18313;48.518;9.124;2024-02-28T03:41:47;7.00;99.90
31735;DHT22;18313;48.518;9.124;2024-02-28T03:44:15;7.10;99.90
31735;DHT22;18313;48.518;9.124;2024-02-28T03:46:42;7.10;99.90
31735;DHT22;18313;48.518;9.124;2024-02-28T03:49:09;7.10;99.90
31735;DHT22;18313;48.518;9.124;2024-02-28T03:51:40;7.10;99.90
31735;DHT22;18313;48.518;9.124;2024-02-28T03:54:08;7.20;99.90
31735;DHT22;18313;48.518;9.124;2024-02-28T03:56:36;7.20;99.90
31735;DHT22;18313;48.518;9.124;2024-02-28T03:59:03;7.10;99.90
31735;DHT22;18313;48.518;9.124;2024-02-28T04:01:31;7.10;99.90
31735;DHT22;18313;48.518;9.124;2024-02-28T04:03:58;7.00;99.90
31735;DHT22;18313;48.518;9.124;2024-02-28T04:06:25;7.00;99.90
31735;DHT22;18313;48.518;9.124;2024-02-28T04:08:53;7.00;99.90
31735;DHT22;18313;48.518;9.124;2024-02-28T04:11:20;6.90;99.90
31735;DHT22;18313;48.518;9.124;2024-02-28T04:13:47;6.90;99.90
31735;DHT22;18313;48.518;9.124;2024-02-28T04:16:15;6.90;99.90
31735;DHT22;18313;48.518;9.124;2024-02-28T04:18:42;6.90;99.90
31735;DHT22;18313;48.518;9.124;2024-02-28T04:21:10;7.00;99.90
31735;DHT22;18313;48.518;9.124;2024-02-28T04:23:37;6.90;99.90
31735;DHT22;18313;48.518;9.124;2024-02-28T04:26:05;6.90;99.90
31735;DHT22;18313;48.518;9.124;2024-02-28T04:28:32;6.90;99.90
31735;DHT22;18313;48.518;9.124;2024-02-28T04:31:00;6.90;99.90
31735;DHT22;18313;48.518;9.124;2024-02-28T04:33:27;7.00;99.90
31735;DHT22;18313;48.518;9.124;2024-02-28T04:35:54;7.00;99.90
31735;DHT22;18313;48.518;9.124;2024-02-28T04:38:22;7.00;99.90
31735;DHT22;18313;48.518;9.124;2024-02-28T04:40:50;6.90;99.90
31735;DHT22;18313;48.518;9.124;2024-02-28T04:43:19;6.90;99.90
31735;DHT22;18313;48.518;9.124;2024-02-28T04:45:47;6.90;99.90
31735;DHT22;18313;48.518;9.124;2024-02-28T04:48:14;7.00;99.90
31735;DHT22;18313;48.518;9.124;2024-02-28T04:50:41;7.00;99.90
31735;DHT22;18313;48.518;9.124;2024-02-28T04:53:08;6.90;99.90
31735;DHT22;18313;48.518;9.124;2024-02-28T04:55:35;6.90;99.90
31735;DHT22;18313;48.518;9.124;2024-02-28T04:58:02;6.90;99.90
31735;DHT22;18313;48.518;9.124;2024-02-28T05:00:30;6.80;99.90
31735;DHT22;18313;48.518;9.124;2024-02-28T05:02:57;6.80;99.90
31735;DHT22;18313;48.518;9.124;2024-02-28T05:05:25;6.80;99.90
31735;DHT22;18313;48.518;9.124;2024-02-28T05:07:52;6.80;99.90
31735;DHT22;18313;48.518;9.124;2024-02-28T05:10:19;6.80;99.90
31735;DHT22;18313;48.518;9.124;2024-02-28T05:12:46;6.80;99.90
31735;DHT22;18313;48.518;9.124;2024-02-28T05:15:13;6.80;99.90
31735;DHT22;18313;48.518;9.124;2024-02-28T05:17:41;6.70;99.90
31735;DHT22;18313;48.518;9.124;2024-02-28T05:20:08;6.80;99.90
31735;DHT22;18313;48.518;9.124;2024-02-28T05:22:36;6.70;99.90
31735;DHT22;18313;48.518;9.124;2024-02-28T05:25:03;6.80;99.90
31735;DHT22;18313;48.518;9.124;2024-02-28T05:27:30;6.70;99.90
31735;DHT22;18313;48.518;9.124;2024-02-28T05:30:01;6.70;99.90
31735;DHT22;18313;48.518;9.124;2024-02-28T05:32:28;6.70;99.90
31735;DHT22;18313;48.518;9.124;2024-02-28T05:34:56;6.70;99.90
31735;DHT22;18313;48.518;9.124;2024-02-28T05:37:23;6.70;99.90
31735;DHT22;18313;48.518;9.124;2024-02-28T05:39:51;6.70;99.90
31735;DHT22;18313;48.518;9.124;2024-02-28T05:42:18;6.70;99.90
31735;DHT22;18313;48.518;9.124;2024-02-28T05:44:49;6.70;99.90
31735;DHT22;18313;48.518;9.124;2024-02-28T05:47:16;6.60;99.90
31735;DHT22;18313;48.518;9.124;2024-02-28T05:49:45;6.70;99.90
31735;DHT22;18313;48.518;9.124;2024-02-28T05:52:14;6.60;99.90
31735;DHT22;18313;48.518;9.124;2024-02-28T05:54:41;6.70;99.90
31735;DHT22;18313;48.518;9.124;2024-02-28T05:57:08;6.70;99.90
31735;DHT22;18313;48.518;9.124;2024-02-28T05:59:35;6.70;99.90
31735;DHT22;18313;48.518;9.124;2024-02-28T06:02:06;6.70;99.90
31735;DHT22;18313;48.518;9.124;2024-02-28T06:04:33;6.60;99.90
31735;DHT22;18313;48.518;9.124;2024-02-28T06:07:00;6.70;99.90
31735;DHT22;18313;48.518;9.124;2024-02-28T06:09:28;6.60;99.90
31735;DHT22;18313;48.518;9.124;2024-02-28T06:12:04;6.60;99.90
31735;DHT22;18313;48.518;9.124;2024-02-28T06:14:33;6.70;99.90
31735;DHT22;18313;48.518;9.124;2024-02-28T06:17:00;6.70;99.90
31735;DHT22;18313;48.518;9.124;2024-02-28T06:19:27;6.70;99.90
31735;DHT22;18313;48.518;9.124;2024-02-28T06:21:55;6.70;99.90
31735;DHT22;18313;48.518;9.124;2024-02-28T06:24:22;6.60;99.90
31735;DHT22;18313;48.518;9.124;2024-02-28T06:26:49;6.70;99.90
31735;DHT22;18313;48.518;9.124;2024-02-28T06:29:17;6.70;99.90
31735;DHT22;18313;48.518;9.124;2024-02-28T06:31:44;6.60;99.90
31735;DHT22;18313;48.518;9.124;2024-02-28T06:34:11;6.60;99.90
31735;DHT22;18313;48.518;9.124;2024-02-28T06:36:42;6.70;99.90
31735;DHT22;18313;48.518;9.124;2024-02-28T06:39:09;6.70;99.90
31735;DHT22;18313;48.518;9.124;2024-02-28T06:41:37;6.70;99.90
31735;DHT22;18313;48.518;9.124;2024-02-28T06:44:04;6.70;99.90
31735;DHT22;18313;48.518;9.124;2024-02-28T06:46:31;6.70;99.90
31735;DHT22;18313;48.518;9.124;2024-02-28T06:48:59;6.70;99.90
31735;DHT22;18313;48.518;9.124;2024-02-28T06:51:27;6.70;99.90
31735;DHT22;18313;48.518;9.124;2024-02-28T06:53:55;6.70;99.90
31735;DHT22;18313;48.518;9.124;2024-02-28T06:56:22;6.60;99.90
31735;DHT22;18313;48.518;9.124;2024-02-28T06:58:49;6.50;99.90
31735;DHT22;18313;48.518;9.124;2024-02-28T07:01:17;6.60;99.90
31735;DHT22;18313;48.518;9.124;2024-02-28T07:03:48;6.50;99.90
31735;DHT22;18313;48.518;9.124;2024-02-28T07:06:16;6.50;99.90
31735;DHT22;18313;48.518;9.124;2024-02-28T07:08:43;6.60;99.90
31735;DHT22;18313;48.518;9.124;2024-02-28T07:11:14;6.50;99.90
31735;DHT22;18313;48.518;9.124;2024-02-28T07:13:42;6.60;99.90
31735;DHT22;18313;48.518;9.124;2024-02-28T07:16:10;6.60;99.90
31735;DHT22;18313;48.518;9.124;2024-02-28T07:18:37;6.70;99.90
31735;DHT22;18313;48.518;9.124;2024-02-28T07:21:05;6.70;99.90
31735;DHT22;18313;48.518;9.124;2024-02-28T07:23:34;6.70;99.90
31735;DHT22;18313;48.518;9.124;2024-02-28T07:26:03;6.70;99.90
31735;DHT22;18313;48.518;9.124;2024-02-28T07:28:45;6.70;99.90
31735;DHT22;18313;48.518;9.124;2024-02-28T07:31:21;6.70;99.90
31735;DHT22;18313;48.518;9.124;2024-02-28T07:33:50;6.80;99.90
31735;DHT22;18313;48.518;9.124;2024-02-28T07:36:18;6.80;99.90
31735;DHT22;18313;48.518;9.124;2024-02-28T07:38:46;6.70;99.90
31735;DHT22;18313;48.518;9.124;2024-02-28T07:41:16;6.70;99.90
31735;DHT22;18313;48.518;9.124;2024-02-28T07:43:44;6.80;99.90
31735;DHT22;18313;48.518;9.124;2024-02-28T07:46:12;6.80;99.90
31735;DHT22;18313;48.518;9.124;2024-02-28T07:48:39;6.80;99.90
31735;DHT22;18313;48.518;9.124;2024-02-28T07:51:07;6.80;99.90
31735;DHT22;18313;48.518;9.124;2024-02-28T07:53:35;6.90;99.90
31735;DHT22;18313;48.518;9.124;2024-02-28T07:56:03;7.00;99.90
31735;DHT22;18313;48.518;9.124;2024-02-28T07:58:30;6.90;99.90
31735;DHT22;18313;48.518;9.124;2024-02-28T08:00:58;7.10;99.90
31735;DHT22;18313;48.518;9.124;2024-02-28T08:03:25;7.10;99.90
31735;DHT22;18313;48.518;9.124;2024-02-28T08:05:53;7.10;99.90
31735;DHT22;18313;48.518;9.124;2024-02-28T08:08:20;7.20;99.90
31735;DHT22;18313;48.518;9.124;2024-02-28T08:10:47;7.30;99.90
31735;DHT22;18313;48.518;9.124;2024-02-28T08:13:16;7.30;99.90
31735;DHT22;18313;48.518;9.124;2024-02-28T08:15:43;7.30;99.90
31735;DHT22;18313;48.518;9.124;2024-02-28T08:18:11;7.30;99.90
31735;DHT22;18313;48.518;9.124;2024-02-28T08:20:38;7.20;99.90
31735;DHT22;18313;48.518;9.124;2024-02-28T08:23:06;7.20;99.90
31735;DHT22;18313;48.518;9.124;2024-02-28T08:25:33;7.30;99.90
31735;DHT22;18313;48.518;9.124;2024-02-28T08:28:01;7.20;99.90
31735;DHT22;18313;48.518;9.124;2024-02-28T08:30:28;7.20;99.90
31735;DHT22;18313;48.518;9.124;2024-02-28T08:32:58;7.10;99.90
31735;DHT22;18313;48.518;9.124;2024-02-28T08:35:25;7.20;99.90
31735;DHT22;18313;48.518;9.124;2024-02-28T08:37:53;7.20;99.90
31735;DHT22;18313;48.518;9.124;2024-02-28T08:40:20;7.30;99.90
31735;DHT22;18313;48.518;9.124;2024-02-28T08:42:49;7.30;99.90
31735;DHT22;18313;48.518;9.124;2024-02-28T08:45:22;7.20;99.90
31735;DHT22;18313;48.518;9.124;2024-02-28T08:47:49;7.20;99.90
31735;DHT22;18313;48.518;9.124;2024-02-28T08:50:17;7.30;99.90
31735;DHT22;18313;48.518;9.124;2024-02-28T08:52:45;7.20;99.90
31735;DHT22;18313;48.518;9.124;2024-02-28T08:55:12;7.20;99.90
31735;DHT22;18313;48.518;9.124;2024-02-28T08:57:40;7.30;99.90
31735;DHT22;18313;48.518;9.124;2024-02-28T09:00:10;7.40;99.90
31735;DHT22;18313;48.518;9.124;2024-02-28T09:02:37;7.50;99.90
31735;DHT22;18313;48.518;9.124;2024-02-28T09:05:05;7.50;99.90
31735;DHT22;18313;48.518;9.124;2024-02-28T09:07:32;7.50;99.90
31735;DHT22;18313;48.518;9.124;2024-02-28T09:10:06;7.50;99.90
31735;DHT22;18313;48.518;9.124;2024-02-28T09:12:36;7.50;99.90
31735;DHT22;18313;48.518;9.124;2024-02-28T09:15:03;7.40;99.90
31735;DHT22;18313;48.518;9.124;2024-02-28T09:17:31;7.50;99.90
31735;DHT22;18313;48.518;9.124;2024-02-28T09:19:58;7.50;99.90
31735;DHT22;18313;48.518;9.124;2024-02-28T09:22:28;7.60;99.90
31735;DHT22;18313;48.518;9.124;2024-02-28T09:24:56;7.70;99.90
31735;DHT22;18313;48.518;9.124;2024-02-28T09:27:23;7.70;99.90
31735;DHT22;18313;48.518;9.124;2024-02-28T09:29:52;7.80;99.90
31735;DHT22;18313;48.518;9.124;2024-02-28T09:32:19;7.80;99.90
31735;DHT22;18313;48.518;9.124;2024-02-28T09:34:47;7.90;99.90
31735;DHT22;18313;48.518;9.124;2024-02-28T09:37:15;7.80;99.90
31735;DHT22;18313;48.518;9.124;2024-02-28T09:39:44;7.90;99.90
31735;DHT22;18313;48.518;9.124;2024-02-28T09:42:12;7.90;99.90
31735;DHT22;18313;48.518;9.124;2024-02-28T09:44:43;7.90;99.90
31735;DHT22;18313;48.518;9.124;2024-02-28T09:47:10;7.90;99.90
31735;DHT22;18313;48.518;9.124;2024-02-28T09:49:38;7.90;99.90
31735;DHT22;18313;48.518;9.124;2024-02-28T09:52:07;8.00;99.90
31735;DHT22;18313;48.518;9.124;2024-02-28T09:54:35;8.10;99.90
31735;DHT22;18313;48.518;9.124;2024-02-28T09:57:04;8.20;99.90
31735;DHT22;18313;48.518;9.124;2024-02-28T09:59:32;8.20;99.90
31735;DHT22;18313;48.518;9.124;2024-02-28T10:02:20;8.20;99.90
31735;DHT22;18313;48.518;9.124;2024-02-28T10:04:49;8.10;99.90
31735;DHT22;18313;48.518;9.124;2024-02-28T10:07:18;8.10;99.90
31735;DHT22;18313;48.518;9.124;2024-02-28T10:09:46;8.20;99.90
31735;DHT22;18313;48.518;9.124;2024-02-28T10:12:15;8.30;99.90
31735;DHT22;18313;48.518;9.124;2024-02-28T10:14:43;8.40;99.90
31735;DHT22;18313;48.518;9.124;2024-02-28T10:17:11;8.40;99.90
31735;DHT22;18313;48.518;9.124;2024-02-28T10:19:41;8.40;99.90
31735;DHT22;18313;48.518;9.124;2024-02-28T10:22:09;8.50;99.90
31735;DHT22;18313;48.518;9.124;2024-02-28T10:24:41;8.40;99.90
31735;DHT22;18313;48.518;9.124;2024-02-28T10:27:08;8.50;99.90
31735;DHT22;18313;48.518;9.124;2024-02-28T10:29:36;8.50;99.90
31735;DHT22;18313;48.518;9.124;2024-02-28T10:32:04;8.60;99.90
31735;DHT22;18313;48.518;9.124;2024-02-28T10:34:32;8.70;99.90
31735;DHT22;18313;48.518;9.124;2024-02-28T10:37:04;8.70;99.90
31735;DHT22;18313;48.518;9.124;2024-02-28T10:39:32;8.70;99.90
31735;DHT22;18313;48.518;9.124;2024-02-28T10:42:02;8.70;99.90
31735;DHT22;18313;48.518;9.124;2024-02-28T10:44:31;8.70;99.90
31735;DHT22;18313;48.518;9.124;2024-02-28T10:47:00;8.90;99.90
31735;DHT22;18313;48.518;9.124;2024-02-28T10:49:33;8.90;99.90
31735;DHT22;18313;48.518;9.124;2024-02-28T10:52:03;8.90;99.90
31735;DHT22;18313;48.518;9.124;2024-02-28T10:54:37;8.70;99.90
31735;DHT22;18313;48.518;9.124;2024-02-28T10:57:06;8.70;99.90
31735;DHT22;18313;48.518;9.124;2024-02-28T10:59:38;8.70;99.90
31735;DHT22;18313;48.518;9.124;2024-02-28T11:02:07;8.60;99.90
31735;DHT22;18313;48.518;9.124;2024-02-28T11:04:35;8.70;99.90
31735;DHT22;18313;48.518;9.124;2024-02-28T11:07:02;8.70;99.90
31735;DHT22;18313;48.518;9.124;2024-02-28T11:09:30;8.80;99.90
31735;DHT22;18313;48.518;9.124;2024-02-28T11:12:00;8.80;99.90
31735;DHT22;18313;48.518;9.124;2024-02-28T11:14:28;8.90;99.90
31735;DHT22;18313;48.518;9.124;2024-02-28T11:17:05;9.00;99.90
31735;DHT22;18313;48.518;9.124;2024-02-28T11:19:33;9.00;99.90
31735;DHT22;18313;48.518;9.124;2024-02-28T11:22:05;8.90;99.90
31735;DHT22;18313;48.518;9.124;2024-02-28T11:24:34;8.90;99.90
31735;DHT22;18313;48.518;9.124;2024-02-28T11:27:04;8.80;99.90
31735;DHT22;18313;48.518;9.124;2024-02-28T11:29:33;8.80;99.90
31735;DHT22;18313;48.518;9.124;2024-02-28T11:32:01;8.90;99.90
31735;DHT22;18313;48.518;9.124;2024-02-28T11:34:31;9.10;99.90
31735;DHT22;18313;48.518;9.124;2024-02-28T11:36:59;9.20;99.90
31735;DHT22;18313;48.518;9.124;2024-02-28T11:39:27;9.20;99.90
31735;DHT22;18313;48.518;9.124;2024-02-28T11:41:54;9.20;99.90
31735;DHT22;18313;48.518;9.124;2024-02-28T11:44:22;9.00;99.90
31735;DHT22;18313;48.518;9.124;2024-02-28T11:46:50;8.80;99.90
31735;DHT22;18313;48.518;9.124;2024-02-28T11:49:18;8.80;99.90
31735;DHT22;18313;48.518;9.124;2024-02-28T11:51:46;8.70;99.90
31735;DHT22;18313;48.518;9.124;2024-02-28T11:54:14;8.80;99.90
31735;DHT22;18313;48.518;9.124;2024-02-28T11:56:41;8.80;99.90
31735;DHT22;18313;48.518;9.124;2024-02-28T11:59:11;8.90;99.90
31735;DHT22;18313;48.518;9.124;2024-02-28T12:01:44;8.80;99.90
31735;DHT22;18313;48.518;9.124;2024-02-28T12:04:13;8.90;99.90
31735;DHT22;18313;48.518;9.124;2024-02-28T12:06:41;8.90;99.90
31735;DHT22;18313;48.518;9.124;2024-02-28T12:09:12;8.90;99.90
31735;DHT22;18313;48.518;9.124;2024-02-28T12:11:53;9.00;99.90
31735;DHT22;18313;48.518;9.124;2024-02-28T12:14:21;9.10;99.90
31735;DHT22;18313;48.518;9.124;2024-02-28T12:16:49;9.00;99.90
31735;DHT22;18313;48.518;9.124;2024-02-28T12:19:17;9.10;99.90
31735;DHT22;18313;48.518;9.124;2024-02-28T12:21:47;9.00;99.90
31735;DHT22;18313;48.518;9.124;2024-02-28T12:24:15;9.10;99.90
31735;DHT22;18313;48.518;9.124;2024-02-28T12:26:43;9.00;99.90
31735;DHT22;18313;48.518;9.124;2024-02-28T12:29:12;9.10;99.90
31735;DHT22;18313;48.518;9.124;2024-02-28T12:31:40;9.20;99.90
31735;DHT22;18313;48.518;9.124;2024-02-28T12:34:09;9.20;99.90
31735;DHT22;18313;48.518;9.124;2024-02-28T12:36:38;9.20;99.90
31735;DHT22;18313;48.518;9.124;2024-02-28T12:39:05;9.20;99.90
31735;DHT22;18313;48.518;9.124;2024-02-28T12:41:33;9.10;99.90
31735;DHT22;18313;48.518;9.124;2024-02-28T12:44:02;9.10;99.90
31735;DHT22;18313;48.518;9.124;2024-02-28T12:46:33;9.10;99.90
31735;DHT22;18313;48.518;9.124;2024-02-28T12:49:01;9.10;99.90
31735;DHT22;18313;48.518;9.124;2024-02-28T12:51:37;9.00;99.90
31735;DHT22;18313;48.518;9.124;2024-02-28T12:54:05;8.90;99.90
31735;DHT22;18313;48.518;9.124;2024-02-28T12:56:38;8.70;99.90
31735;DHT22;18313;48.518;9.124;2024-02-28T12:59:06;8.80;99.90
31735;DHT22;18313;48.518;9.124;2024-02-28T13:01:40;8.80;99.90
31735;DHT22;18313;48.518;9.124;2024-02-28T13:04:08;8.80;99.90
31735;DHT22;18313;48.518;9.124;2024-02-28T13:06:38;8.80;99.90
31735;DHT22;18313;48.518;9.124;2024-02-28T13:09:06;8.90;99.90
31735;DHT22;18313;48.518;9.124;2024-02-28T13:11:39;9.00;99.90
31735;DHT22;18313;48.518;9.124;2024-02-28T13:14:07;9.00;99.90
31735;DHT22;18313;48.518;9.124;2024-02-28T13:16:36;9.00;99.90
31735;DHT22;18313;48.518;9.124;2024-02-28T13:19:05;8.90;99.90
31735;DHT22;18313;48.518;9.124;2024-02-28T13:21:33;8.90;99.90
31735;DHT22;18313;48.518;9.124;2024-02-28T13:24:01;8.90;99.90
31735;DHT22;18313;48.518;9.124;2024-02-28T13:26:29;8.90;99.90
31735;DHT22;18313;48.518;9.124;2024-02-28T13:28:56;8.80;99.90
31735;DHT22;18313;48.518;9.124;2024-02-28T13:31:24;8.50;99.90
31735;DHT22;18313;48.518;9.124;2024-02-28T13:33:51;8.50;99.90
31735;DHT22;18313;48.518;9.124;2024-02-28T13:36:19;8.50;99.90
31735;DHT22;18313;48.518;9.124;2024-02-28T13:38:47;8.70;99.90
31735;DHT22;18313;48.518;9.124;2024-02-28T13:41:14;8.80;99.90
31735;DHT22;18313;48.518;9.124;2024-02-28T13:43:43;8.90;99.90
31735;DHT22;18313;48.518;9.124;2024-02-28T13:46:11;8.90;99.90
31735;DHT22;18313;48.518;9.124;2024-02-28T13:48:38;8.90;99.90
31735;DHT22;18313;48.518;9.124;2024-02-28T13:51:06;9.00;99.90
31735;DHT22;18313;48.518;9.124;2024-02-28T13:53:33;9.00;99.90
31735;DHT22;18313;48.518;9.124;2024-02-28T13:56:01;9.00;99.90
31735;DHT22;18313;48.518;9.124;2024-02-28T13:58:28;9.00;99.90
31735;DHT22;18313;48.518;9.124;2024-02-28T14:01:09;8.90;99.90
31735;DHT22;18313;48.518;9.124;2024-02-28T14:03:37;9.00;99.90
31735;DHT22;18313;48.518;9.124;2024-02-28T14:06:09;9.00;99.90
31735;DHT22;18313;48.518;9.124;2024-02-28T14:08:36;8.90;99.90
31735;DHT22;18313;48.518;9.124;2024-02-28T14:11:04;8.90;99.90
31735;DHT22;18313;48.518;9.124;2024-02-28T14:13:32;8.80;99.90
31735;DHT22;18313;48.518;9.124;2024-02-28T14:15:59;8.80;99.90
31735;DHT22;18313;48.518;9.124;2024-02-28T14:18:27;8.80;99.90
31735;DHT22;18313;48.518;9.124;2024-02-28T14:20:54;8.80;99.90
31735;DHT22;18313;48.518;9.124;2024-02-28T14:23:21;8.90;99.90
31735;DHT22;18313;48.518;9.124;2024-02-28T14:25:49;8.90;99.90
31735;DHT22;18313;48.518;9.124;2024-02-28T14:28:16;9.00;99.90
31735;DHT22;18313;48.518;9.124;2024-02-28T14:30:46;9.00;99.90
31735;DHT22;18313;48.518;9.124;2024-02-28T14:33:16;9.00;99.90
31735;DHT22;18313;48.518;9.124;2024-02-28T14:35:44;8.90;99.90
31735;DHT22;18313;48.518;9.124;2024-02-28T14:38:13;8.90;99.90
31735;DHT22;18313;48.518;9.124;2024-02-28T14:40:41;8.90;99.90
31735;DHT22;18313;48.518;9.124;2024-02-28T14:43:08;8.90;99.90
31735;DHT22;18313;48.518;9.124;2024-02-28T14:45:36;8.90;99.90
31735;DHT22;18313;48.518;9.124;2024-02-28T14:48:07;8.80;99.90
31735;DHT22;18313;48.518;9.124;2024-02-28T14:50:34;8.70;99.90
31735;DHT22;18313;48.518;9.124;2024-02-28T14:53:05;8.60;99.90
31735;DHT22;18313;48.518;9.124;2024-02-28T14:55:33;8.60;99.90
31735;DHT22;18313;48.518;9.124;2024-02-28T14:58:00;8.50;99.90
31735;DHT22;18313;48.518;9.124;2024-02-28T15:00:30;8.60;99.90
31735;DHT22;18313;48.518;9.124;2024-02-28T15:02:57;8.60;99.90
31735;DHT22;18313;48.518;9.124;2024-02-28T15:05:25;8.50;99.90
31735;DHT22;18313;48.518;9.124;2024-02-28T15:07:53;8.50;99.90
31735;DHT22;18313;48.518;9.124;2024-02-28T15:10:22;8.60;99.90
31735;DHT22;18313;48.518;9.124;2024-02-28T15:12:49;8.60;99.90
31735;DHT22;18313;48.518;9.124;2024-02-28T15:15:17;8.50;99.90
31735;DHT22;18313;48.518;9.124;2024-02-28T15:17:44;8.40;99.90
31735;DHT22;18313;48.518;9.124;2024-02-28T15:20:14;8.40;99.90
31735;DHT22;18313;48.518;9.124;2024-02-28T15:22:42;8.30;99.90
31735;DHT22;18313;48.518;9.124;2024-02-28T15:25:12;8.40;99.90
31735;DHT22;18313;48.518;9.124;2024-02-28T15:27:40;8.50;99.90
31735;DHT22;18313;48.518;9.124;2024-02-28T15:30:08;8.50;99.90
31735;DHT22;18313;48.518;9.124;2024-02-28T15:32:37;8.50;99.90
31735;DHT22;18313;48.518;9.124;2024-02-28T15:35:10;8.40;99.90
31735;DHT22;18313;48.518;9.124;2024-02-28T15:37:38;8.40;99.90
31735;DHT22;18313;48.518;9.124;2024-02-28T15:40:08;8.30;99.90
31735;DHT22;18313;48.518;9.124;2024-02-28T15:42:39;8.20;99.90
31735;DHT22;18313;48.518;9.124;2024-02-28T15:45:06;8.10;99.90
31735;DHT22;18313;48.518;9.124;2024-02-28T15:47:33;8.00;99.90
31735;DHT22;18313;48.518;9.124;2024-02-28T15:50:02;8.00;99.90